Time;durP1;ratioP1;P1;durP2;ratioP2;P2;SDS_P1;SDS_P2;PMS_P1;PMS_P2;Temp;Humidity;BMP_temperature;BMP_pressure;BME280_temperature;BME280_humidity;BME280_pressure;Samples;Min_cycle;Max_cycle;Signal;HPM_P1;HPM_P2
2022/09/02 00:02:21;;;;;;;1.77;1.40;;;23.80;66.90;;;;;;5091771;28;20360;-69
2022/09/02 00:04:47;;;;;;;1.52;1.25;;;23.90;67.90;;;;;;5093127;28;20020;-69
2022/09/02 00:07:13;;;;;;;1.40;1.00;;;23.90;66.90;;;;;;5074919;28;20116;-69
2022/09/02 00:09:39;;;;;;;2.08;1.08;;;23.80;66.90;;;;;;5092549;28;20095;-69
2022/09/02 00:12:05;;;;;;;3.25;0.95;;;23.90;66.90;;;;;;5092994;28;20043;-69
2022/09/02 00:14:33;;;;;;;2.17;1.13;;;23.80;66.90;;;;;;5074887;28;20036;-69
2022/09/02 00:16:59;;;;;;;1.83;1.23;;;23.90;66.90;;;;;;5074889;28;20024;-69
2022/09/02 00:19:25;;;;;;;3.80;1.38;;;23.90;66.90;;;;;;5092649;28;20020;-69
2022/09/02 00:21:52;;;;;;;1.40;1.30;;;23.90;66.90;;;;;;5091409;28;20522;-69
2022/09/02 00:24:18;;;;;;;3.60;1.20;;;23.80;66.90;;;;;;5091362;28;20028;-69
2022/09/02 00:26:44;;;;;;;1.48;1.10;;;23.80;66.90;;;;;;5074781;28;20016;-69
2022/09/02 00:29:11;;;;;;;1.90;1.13;;;23.80;66.90;;;;;;5091245;28;20047;-69
2022/09/02 00:31:37;;;;;;;3.53;1.25;;;23.90;67.00;;;;;;5074680;28;20013;-69
2022/09/02 00:34:03;;;;;;;1.20;1.10;;;23.90;67.00;;;;;;5074656;28;20505;-69
2022/09/02 00:36:29;;;;;;;1.25;1.15;;;23.80;67.00;;;;;;5074503;28;20111;-69
2022/09/02 00:38:55;;;;;;;2.90;1.20;;;23.90;67.00;;;;;;5092233;28;20024;-69
2022/09/02 00:41:23;;;;;;;2.17;0.93;;;23.90;67.00;;;;;;5091201;28;20024;-69
2022/09/02 00:43:51;;;;;;;2.47;1.38;;;23.90;67.10;;;;;;5074472;28;20028;-69
2022/09/02 00:46:19;;;;;;;2.22;1.10;;;23.90;67.00;;;;;;5092280;28;20052;-69
2022/09/02 00:49:08;;;;;;;3.03;1.30;;;23.90;67.00;;;;;;5074449;28;20459;-69
2022/09/02 00:51:41;;;;;;;2.25;1.33;;;23.80;67.00;;;;;;5086414;28;20044;-69
2022/09/02 00:54:07;;;;;;;1.92;1.40;;;23.90;67.00;;;;;;5091361;28;20024;-69
2022/09/02 00:56:32;;;;;;;4.25;1.10;;;23.90;67.00;;;;;;5057448;28;20082;-69
2022/09/02 00:58:58;;;;;;;1.25;1.13;;;23.80;67.00;;;;;;5093628;28;20055;-69
2022/09/02 01:01:24;;;;;;;1.30;1.17;;;23.80;67.00;;;;;;5078608;28;20099;-69
2022/09/02 01:03:50;;;;;;;3.00;1.10;;;23.80;67.00;;;;;;5078180;28;20032;-69
2022/09/02 01:06:16;;;;;;;1.52;0.93;;;23.80;67.00;;;;;;5078031;28;20020;-69
2022/09/02 01:08:45;;;;;;;1.83;1.10;;;23.80;67.00;;;;;;5078228;28;20023;-69
2022/09/02 01:11:11;;;;;;;1.00;1.00;;;23.80;66.90;;;;;;5078300;28;20031;-69
2022/09/02 01:13:39;;;;;;;1.42;1.00;;;23.80;66.90;;;;;;5094955;28;20093;-69
2022/09/02 01:16:31;;;;;;;2.42;1.00;;;23.80;66.90;;;;;;5095032;28;20146;-69
2022/09/02 01:18:58;;;;;;;1.15;1.00;;;23.80;67.00;;;;;;5094479;28;20033;-69
2022/09/02 01:21:23;;;;;;;1.33;1.00;;;23.80;66.90;;;;;;5077903;28;20471;-69
2022/09/02 01:23:49;;;;;;;1.30;1.15;;;23.80;67.00;;;;;;5095908;28;20031;-69
2022/09/02 01:26:15;;;;;;;2.78;1.17;;;23.80;67.00;;;;;;5094884;28;20024;-69
2022/09/02 01:28:40;;;;;;;0.90;0.90;;;23.80;67.00;;;;;;5094645;28;20032;-69
2022/09/02 01:31:06;;;;;;;1.17;1.00;;;23.80;66.90;;;;;;5094508;28;20039;-69
2022/09/02 01:33:32;;;;;;;1.65;1.35;;;23.80;66.90;;;;;;5077633;28;20028;-69
2022/09/02 01:35:58;;;;;;;1.40;1.02;;;23.80;67.00;;;;;;5060674;28;20032;-69
2022/09/02 01:38:24;;;;;;;3.55;1.50;;;23.80;67.00;;;;;;5094449;28;20012;-69
2022/09/02 01:40:51;;;;;;;1.20;1.10;;;23.80;67.00;;;;;;5094080;28;20024;-69
2022/09/02 01:43:19;;;;;;;2.65;0.95;;;23.80;67.00;;;;;;5095741;28;20048;-69
2022/09/02 01:45:45;;;;;;;1.70;1.08;;;23.80;67.00;;;;;;5094397;28;20027;-69
2022/09/02 01:48:11;;;;;;;1.65;1.20;;;23.80;67.00;;;;;;5077400;28;20048;-69
2022/09/02 01:50:38;;;;;;;2.25;1.05;;;23.80;67.00;;;;;;5093853;28;20097;-69
2022/09/02 01:53:04;;;;;;;4.47;1.17;;;23.80;67.00;;;;;;5094295;28;20387;-69
2022/09/02 01:55:30;;;;;;;1.13;0.98;;;23.80;67.00;;;;;;5094085;28;20020;-69
2022/09/02 01:57:56;;;;;;;1.55;1.30;;;23.80;67.00;;;;;;5094006;28;20012;-69
2022/09/02 02:00:22;;;;;;;2.13;1.55;;;23.80;67.00;;;;;;5095333;28;20103;-69
2022/09/02 02:02:48;;;;;;;0.95;0.95;;;23.80;67.10;;;;;;5093998;28;20103;-69
2022/09/02 02:05:14;;;;;;;1.40;1.10;;;23.80;67.10;;;;;;5076949;28;20028;-69
2022/09/02 02:07:44;;;;;;;1.92;1.02;;;23.80;67.10;;;;;;5095110;28;20453;-69
2022/09/02 02:10:10;;;;;;;1.00;1.00;;;23.80;67.10;;;;;;5093558;28;20020;-69
2022/09/02 02:12:36;;;;;;;1.73;1.08;;;23.80;67.10;;;;;;5093786;28;20364;-69
2022/09/02 02:15:06;;;;;;;1.77;1.00;;;23.80;67.10;;;;;;5093786;28;20032;-69
2022/09/02 02:17:32;;;;;;;1.10;1.00;;;23.80;67.10;;;;;;5094883;28;20016;-69
2022/09/02 02:19:57;;;;;;;2.63;0.95;;;23.80;67.10;;;;;;5094644;28;20387;-69
2022/09/02 02:22:23;;;;;;;1.02;0.98;;;23.80;67.10;;;;;;5094789;28;20555;-69
2022/09/02 02:24:49;;;;;;;0.98;0.98;;;23.80;67.00;;;;;;5093700;28;20118;-69
2022/09/02 02:27:14;;;;;;;1.08;0.80;;;23.80;67.10;;;;;;5094868;28;20024;-69
2022/09/02 02:29:40;;;;;;;1.30;1.15;;;23.80;67.10;;;;;;5094536;28;20028;-69
2022/09/02 02:32:06;;;;;;;1.95;1.13;;;23.80;67.10;;;;;;5094831;28;20020;-69
2022/09/02 02:34:33;;;;;;;3.25;1.30;;;23.80;67.10;;;;;;5093086;28;20387;-69
2022/09/02 02:36:58;;;;;;;1.50;1.00;;;23.80;67.10;;;;;;5076634;28;20019;-69
2022/09/02 02:39:24;;;;;;;1.08;1.00;;;23.80;67.10;;;;;;5093433;28;20028;-69
2022/09/02 02:41:50;;;;;;;1.08;0.98;;;23.80;67.10;;;;;;5076047;28;20023;-69
2022/09/02 02:44:15;;;;;;;3.55;1.20;;;23.80;67.10;;;;;;5093092;28;20067;-69
2022/09/02 02:46:41;;;;;;;4.78;0.98;;;23.80;67.10;;;;;;5094351;28;20040;-69
2022/09/02 02:49:08;;;;;;;1.77;1.00;;;23.80;67.10;;;;;;5093048;28;20078;-69
2022/09/02 02:51:33;;;;;;;1.40;1.05;;;23.80;67.10;;;;;;5093159;28;20023;-69
2022/09/02 02:54:00;;;;;;;3.20;1.23;;;23.80;67.10;;;;;;5092986;28;20111;-69
2022/09/02 02:56:27;;;;;;;1.30;1.15;;;23.80;67.10;;;;;;5093002;28;20028;-69
2022/09/02 02:58:53;;;;;;;1.33;0.98;;;23.80;67.20;;;;;;5092853;28;20103;-69
2022/09/02 03:01:18;;;;;;;1.10;1.00;;;23.80;67.10;;;;;;5093037;28;20051;-69
2022/09/02 03:03:44;;;;;;;1.23;1.00;;;23.80;67.10;;;;;;5092398;28;20024;-69
2022/09/02 03:06:10;;;;;;;1.55;1.02;;;23.80;67.10;;;;;;5094128;28;20027;-69
2022/09/02 03:08:36;;;;;;;2.13;1.20;;;23.80;67.10;;;;;;5093884;28;20031;-69
2022/09/02 03:11:02;;;;;;;0.85;0.80;;;23.80;67.10;;;;;;5093908;28;20016;-69
2022/09/02 03:13:28;;;;;;;1.20;1.10;;;23.80;67.10;;;;;;5092743;28;20173;-69
2022/09/02 03:15:54;;;;;;;0.77;0.77;;;23.80;67.10;;;;;;5093755;28;20119;-69
2022/09/02 03:18:20;;;;;;;2.13;1.00;;;23.80;67.10;;;;;;5092079;28;20035;-70
2022/09/02 03:20:45;;;;;;;1.30;1.20;;;23.70;67.10;;;;;;5074709;28;20020;-69
2022/09/02 03:23:14;;;;;;;1.20;0.90;;;23.80;67.10;;;;;;5092611;28;20043;-69
2022/09/02 03:25:41;;;;;;;0.80;0.80;;;23.80;67.10;;;;;;5075898;28;20031;-69
2022/09/02 03:28:07;;;;;;;1.10;1.00;;;23.70;67.10;;;;;;5093901;28;20106;-69
2022/09/02 03:30:33;;;;;;;1.45;1.10;;;23.80;67.10;;;;;;5093445;28;20099;-69
2022/09/02 03:32:59;;;;;;;2.30;1.10;;;23.80;67.10;;;;;;5075138;28;20035;-69
2022/09/02 03:35:25;;;;;;;2.05;1.00;;;23.80;67.10;;;;;;5075568;28;20028;-69
2022/09/02 03:37:51;;;;;;;1.25;1.10;;;23.80;67.10;;;;;;5092074;28;20036;-69
2022/09/02 03:40:19;;;;;;;1.13;1.02;;;23.80;67.20;;;;;;5075117;28;20016;-69
2022/09/02 03:42:44;;;;;;;2.78;0.95;;;23.70;67.10;;;;;;5075355;28;20020;-69
2022/09/02 03:45:10;;;;;;;2.15;0.90;;;23.70;67.10;;;;;;5075148;28;20449;-69
2022/09/02 03:47:36;;;;;;;1.10;1.00;;;23.80;67.20;;;;;;5092764;28;20523;-69
2022/09/02 03:50:02;;;;;;;1.00;0.90;;;23.70;67.10;;;;;;5093220;28;20051;-69
2022/09/02 03:52:28;;;;;;;1.95;0.90;;;23.80;67.20;;;;;;5093281;28;20380;-69
2022/09/02 03:54:54;;;;;;;1.67;1.25;;;23.80;67.20;;;;;;5091703;28;20031;-69
2022/09/02 03:57:21;;;;;;;0.95;0.90;;;23.70;67.10;;;;;;5091899;28;20031;-69
2022/09/02 03:59:47;;;;;;;1.58;1.08;;;23.80;67.20;;;;;;5075018;28;20042;-69
2022/09/02 04:02:13;;;;;;;3.45;1.10;;;23.80;67.20;;;;;;5091659;28;20020;-69
2022/09/02 04:04:38;;;;;;;1.00;0.85;;;23.80;67.20;;;;;;5091713;28;20051;-69
2022/09/02 04:07:04;;;;;;;1.77;1.15;;;23.70;67.20;;;;;;5092870;28;20020;-69
2022/09/02 04:09:30;;;;;;;1.98;1.10;;;23.80;67.20;;;;;;5092964;28;20031;-69
2022/09/02 04:11:55;;;;;;;1.20;1.10;;;23.80;67.20;;;;;;5092788;28;20028;-69
2022/09/02 04:14:21;;;;;;;1.35;1.00;;;23.80;67.20;;;;;;5092824;28;20035;-69
2022/09/02 04:16:46;;;;;;;1.77;1.10;;;23.80;67.30;;;;;;5091306;28;20028;-69
2022/09/02 04:19:12;;;;;;;1.20;1.10;;;23.80;67.20;;;;;;5091636;28;20039;-69
2022/09/02 04:21:38;;;;;;;1.10;1.00;;;23.70;67.20;;;;;;5092766;28;20027;-69
2022/09/02 04:24:05;;;;;;;2.97;1.00;;;23.70;67.20;;;;;;5074808;28;20046;-69
2022/09/02 04:26:30;;;;;;;1.55;1.08;;;23.80;67.20;;;;;;5074708;28;20034;-69
2022/09/02 04:28:56;;;;;;;1.30;1.00;;;23.70;67.20;;;;;;5092254;28;20531;-69
2022/09/02 04:31:24;;;;;;;1.30;1.00;;;23.70;67.20;;;;;;5091615;28;20078;-69
2022/09/02 04:33:50;;;;;;;0.95;0.95;;;23.80;67.30;;;;;;5074766;28;20056;-69
2022/09/02 04:36:16;;;;;;;1.10;1.00;;;23.80;67.20;;;;;;5074650;28;20024;-69
2022/09/02 04:38:42;;;;;;;1.27;1.00;;;23.70;67.20;;;;;;5091451;28;20020;-69
2022/09/02 04:41:09;;;;;;;1.10;1.00;;;23.80;67.30;;;;;;5091033;28;20101;-69
2022/09/02 04:43:35;;;;;;;1.08;1.08;;;23.70;67.20;;;;;;5074386;28;20091;-69
2022/09/02 04:46:03;;;;;;;1.45;1.08;;;23.70;67.30;;;;;;5091076;28;20111;-69
2022/09/02 04:48:29;;;;;;;1.02;1.02;;;23.70;67.30;;;;;;5091265;28;20039;-69
2022/09/02 04:50:55;;;;;;;3.05;1.08;;;23.70;67.20;;;;;;5091233;28;20069;-69
2022/09/02 04:53:21;;;;;;;1.98;1.00;;;23.70;67.20;;;;;;5092601;28;20024;-69
2022/09/02 04:55:47;;;;;;;3.13;1.00;;;23.80;67.20;;;;;;5091984;28;20081;-69
2022/09/02 04:58:13;;;;;;;2.13;1.10;;;23.70;67.30;;;;;;5092100;28;20097;-69
2022/09/02 05:00:39;;;;;;;3.13;1.20;;;23.70;67.30;;;;;;5091204;28;20032;-69
2022/09/02 05:03:05;;;;;;;2.72;0.80;;;23.80;67.40;;;;;;5091134;28;20020;-69
2022/09/02 05:05:32;;;;;;;12.30;1.70;;;23.80;67.40;;;;;;5091148;28;20019;-69
2022/09/02 05:07:58;;;;;;;1.45;1.02;;;23.80;67.40;;;;;;5090836;28;20601;-69
2022/09/02 05:10:23;;;;;;;1.90;1.00;;;23.80;67.40;;;;;;5091081;28;20028;-69
2022/09/02 05:12:49;;;;;;;3.30;1.25;;;23.80;67.50;;;;;;5090878;28;20483;-69
2022/09/02 05:15:15;;;;;;;1.95;0.90;;;23.70;67.40;;;;;;5074201;28;20027;-69
2022/09/02 05:17:41;;;;;;;3.42;1.10;;;23.70;67.50;;;;;;5092021;28;20028;-69
2022/09/02 05:20:08;;;;;;;5.38;1.20;;;23.80;67.50;;;;;;5091078;28;20020;-69
2022/09/02 05:22:34;;;;;;;1.98;1.00;;;23.70;67.50;;;;;;5090852;28;20020;-69
2022/09/02 05:25:00;;;;;;;2.20;1.30;;;23.80;67.50;;;;;;5091974;28;20491;-69
2022/09/02 05:27:25;;;;;;;2.10;0.90;;;23.70;67.50;;;;;;5092067;28;20053;-69
2022/09/02 05:29:54;;;;;;;1.13;0.93;;;23.70;67.50;;;;;;5091916;28;20126;-69
2022/09/02 05:32:21;;;;;;;1.42;1.02;;;23.80;67.50;;;;;;5091795;28;20027;-69
2022/09/02 05:34:47;;;;;;;1.33;1.20;;;23.70;67.60;;;;;;5090951;28;20032;-69
2022/09/02 05:37:12;;;;;;;1.50;1.30;;;23.80;67.50;;;;;;5091890;28;20024;-69
2022/09/02 05:39:38;;;;;;;4.28;1.00;;;23.70;67.50;;;;;;5090534;28;20488;-69
2022/09/02 05:42:04;;;;;;;4.22;1.08;;;23.80;67.50;;;;;;5088988;28;20028;-69
2022/09/02 05:44:30;;;;;;;6.15;1.20;;;23.70;67.50;;;;;;5093597;28;20027;-69
2022/09/02 05:46:56;;;;;;;4.97;1.27;;;23.80;67.50;;;;;;5095752;28;20044;-69
2022/09/02 05:49:22;;;;;;;2.50;1.10;;;23.80;67.60;;;;;;5094728;28;20032;-69
2022/09/02 05:51:52;;;;;;;1.83;1.10;;;23.80;67.60;;;;;;5077707;28;20101;-69
2022/09/02 05:54:23;;;;;;;4.07;1.02;;;23.80;67.70;;;;;;5094555;28;20039;-69
2022/09/02 05:56:50;;;;;;;2.22;1.08;;;23.80;67.60;;;;;;5094395;28;20107;-69
2022/09/02 05:59:17;;;;;;;2.85;1.00;;;23.80;67.70;;;;;;5074375;28;20102;-70
2022/09/02 06:01:42;;;;;;;3.90;1.00;;;23.80;67.70;;;;;;5074289;28;20028;-69
2022/09/02 06:04:08;;;;;;;2.15;1.10;;;23.80;67.70;;;;;;5074159;28;20433;-69
2022/09/02 06:06:34;;;;;;;5.68;1.38;;;23.80;67.70;;;;;;5075502;28;20512;-69
2022/09/02 06:09:00;;;;;;;3.40;1.27;;;23.80;67.60;;;;;;5075225;28;20020;-69
2022/09/02 06:11:27;;;;;;;2.47;1.48;;;23.80;67.50;;;;;;5057343;28;20380;-68
2022/09/02 06:13:54;;;;;;;4.60;1.63;;;23.70;67.40;;;;;;5057441;28;20032;-69
2022/09/02 06:16:20;;;;;;;1.75;1.58;;;23.70;67.30;;;;;;5074186;28;20025;-69
2022/09/02 06:18:46;;;;;;;3.05;1.70;;;23.70;67.30;;;;;;5074025;28;20056;-68
2022/09/02 06:21:12;;;;;;;2.95;1.60;;;23.70;67.30;;;;;;5073784;28;20024;-69
2022/09/02 06:23:38;;;;;;;6.43;1.70;;;23.70;67.20;;;;;;5075279;28;20040;-69
2022/09/02 06:26:05;;;;;;;4.25;1.50;;;23.70;67.10;;;;;;5057113;28;20515;-69
2022/09/02 06:28:31;;;;;;;1.60;1.48;;;23.70;67.00;;;;;;5073820;28;20052;-68
2022/09/02 06:30:57;;;;;;;2.53;1.60;;;23.70;67.00;;;;;;5091412;28;20028;-68
2022/09/02 06:33:22;;;;;;;1.92;1.67;;;23.70;66.90;;;;;;5093616;28;20032;-68
2022/09/02 06:35:48;;;;;;;1.75;1.30;;;23.70;66.90;;;;;;5093310;28;20034;-68
2022/09/02 06:38:14;;;;;;;2.92;1.50;;;23.70;66.90;;;;;;5076470;28;20020;-68
2022/09/02 06:40:53;;;;;;;3.25;1.90;;;23.60;66.80;;;;;;5075546;28;20266;-69
2022/09/02 06:43:19;;;;;;;3.00;1.80;;;23.60;66.80;;;;;;5091687;28;20051;-69
2022/09/02 06:45:44;;;;;;;2.80;1.92;;;23.60;66.80;;;;;;5091756;28;20052;-69
2022/09/02 06:48:10;;;;;;;2.60;2.20;;;23.60;66.70;;;;;;5075053;28;20044;-69
2022/09/02 06:50:43;;;;;;;3.78;2.30;;;23.60;66.80;;;;;;5091841;28;20024;-69
2022/09/02 06:53:10;;;;;;;3.40;2.17;;;23.60;66.80;;;;;;5058338;28;20051;-69
2022/09/02 06:55:40;;;;;;;3.45;2.03;;;23.60;66.80;;;;;;5092676;28;20077;-69
2022/09/02 06:58:06;;;;;;;5.95;2.20;;;23.60;66.80;;;;;;5092717;28;20038;-69
2022/09/02 07:00:34;;;;;;;6.43;2.38;;;23.60;66.80;;;;;;5076103;28;20491;-69
2022/09/02 07:05:44;;;;;;;9.73;3.05;;;23.60;66.80;;;;;;5092990;28;20035;-69
2022/09/02 07:08:09;;;;;;;6.53;2.60;;;23.60;66.80;;;;;;5092631;28;20024;-69
2022/09/02 07:10:39;;;;;;;4.53;2.85;;;23.60;66.90;;;;;;5092608;28;20114;-69
2022/09/02 07:13:05;;;;;;;11.65;3.10;;;23.50;66.90;;;;;;5092582;28;20042;-69
2022/09/02 07:15:31;;;;;;;8.68;3.30;;;23.50;66.80;;;;;;5092729;28;20020;-69
2022/09/02 07:17:57;;;;;;;6.35;3.08;;;23.50;66.90;;;;;;5092410;28;20084;-69
2022/09/02 07:20:22;;;;;;;6.10;2.97;;;23.50;66.80;;;;;;5092566;28;20031;-69
2022/09/02 07:22:48;;;;;;;7.22;2.72;;;23.50;66.90;;;;;;5092407;28;20028;-69
2022/09/02 07:25:15;;;;;;;8.85;3.38;;;23.50;66.80;;;;;;5092382;28;20034;-69
2022/09/02 07:27:42;;;;;;;7.22;3.30;;;23.50;66.80;;;;;;5092438;28;20016;-69
2022/09/02 07:30:09;;;;;;;5.70;2.90;;;23.50;66.80;;;;;;5092528;28;20104;-69
2022/09/02 07:32:34;;;;;;;4.03;2.85;;;23.50;66.90;;;;;;5092248;28;20023;-69
2022/09/02 07:35:00;;;;;;;6.38;3.13;;;23.50;66.80;;;;;;5092417;28;20709;-69
2022/09/02 07:37:27;;;;;;;5.95;3.22;;;23.50;66.80;;;;;;5092219;28;20483;-69
2022/09/02 07:39:52;;;;;;;9.68;2.90;;;23.50;66.80;;;;;;5093156;28;20081;-69
2022/09/02 07:42:19;;;;;;;6.60;3.47;;;23.50;66.80;;;;;;5092190;28;20020;-69
2022/09/02 07:44:44;;;;;;;6.35;3.35;;;23.50;66.70;;;;;;5093290;28;20103;-69
2022/09/02 07:47:10;;;;;;;6.57;3.67;;;23.50;66.80;;;;;;5093092;28;20083;-69
2022/09/02 07:49:36;;;;;;;6.68;3.35;;;23.50;66.80;;;;;;5093140;28;20126;-69
2022/09/02 07:52:02;;;;;;;6.68;3.35;;;23.50;66.70;;;;;;5075121;28;20019;-69
2022/09/02 07:54:30;;;;;;;6.50;3.53;;;23.50;66.70;;;;;;5091889;28;20024;-69
2022/09/02 07:56:56;;;;;;;8.48;3.90;;;23.50;66.70;;;;;;5092860;28;20016;-69
2022/09/02 07:59:23;;;;;;;5.22;3.65;;;23.40;66.70;;;;;;5091959;28;20114;-69
2022/09/02 08:01:50;;;;;;;5.50;3.28;;;23.40;66.70;;;;;;5075279;28;20023;-69
2022/09/02 08:04:17;;;;;;;9.48;3.03;;;23.40;66.60;;;;;;5075089;28;20488;-69
2022/09/02 08:06:43;;;;;;;5.93;3.20;;;23.50;66.60;;;;;;5092404;28;20020;-69
2022/09/02 08:09:10;;;;;;;4.45;3.13;;;23.40;66.60;;;;;;5091633;28;20107;-69
2022/09/02 08:11:40;;;;;;;6.43;3.63;;;23.40;66.60;;;;;;5075107;28;20035;-69
2022/09/02 08:14:07;;;;;;;8.05;3.70;;;23.40;66.60;;;;;;5091487;28;20020;-69
2022/09/02 08:16:33;;;;;;;6.05;3.22;;;23.40;66.50;;;;;;5091581;28;20031;-69
2022/09/02 08:18:58;;;;;;;8.45;3.80;;;23.40;66.60;;;;;;5091482;28;20102;-69
2022/09/02 08:21:24;;;;;;;8.27;3.35;;;23.40;66.60;;;;;;5092636;28;20027;-69
2022/09/02 08:23:50;;;;;;;6.05;3.70;;;23.40;66.70;;;;;;5092676;28;20031;-69
2022/09/02 08:26:17;;;;;;;5.90;3.40;;;23.40;66.70;;;;;;5091268;28;20095;-69
2022/09/02 08:28:42;;;;;;;6.93;3.88;;;23.40;66.70;;;;;;5091549;28;20514;-69
2022/09/02 08:31:09;;;;;;;8.30;3.90;;;23.40;66.70;;;;;;5092448;28;20020;-69
2022/09/02 08:33:35;;;;;;;7.15;3.85;;;23.40;66.70;;;;;;5091467;28;20103;-69
2022/09/02 08:36:05;;;;;;;8.23;3.80;;;23.40;66.70;;;;;;5074419;28;20044;-69
2022/09/02 08:38:31;;;;;;;10.10;4.13;;;23.40;66.70;;;;;;5074971;28;20020;-69
2022/09/02 08:40:56;;;;;;;12.65;3.88;;;23.40;66.80;;;;;;5091283;28;20061;-69
2022/09/02 08:43:38;;;;;;;7.90;3.35;;;23.40;66.70;;;;;;5091300;28;20027;-69
2022/09/02 08:46:05;;;;;;;7.18;3.47;;;23.40;66.70;;;;;;5074877;28;20020;-69
2022/09/02 08:48:41;;;;;;;7.90;3.20;;;23.40;66.70;;;;;;5091213;28;20093;-69
2022/09/02 08:51:09;;;;;;;8.25;3.97;;;23.40;66.80;;;;;;5091025;28;20560;-69
2022/09/02 08:53:36;;;;;;;7.22;3.92;;;23.40;66.80;;;;;;5074543;28;20024;-69
2022/09/02 08:56:03;;;;;;;9.00;3.72;;;23.40;66.70;;;;;;5092304;28;20031;-69
2022/09/02 08:58:38;;;;;;;6.47;3.45;;;23.40;66.80;;;;;;5091053;28;20121;-69
2022/09/02 09:01:15;;;;;;;10.85;3.75;;;23.40;66.70;;;;;;5091045;28;20028;-69
2022/09/02 09:04:18;;;;;;;6.90;3.28;;;23.40;66.80;;;;;;5092291;28;20480;-69
2022/09/02 09:06:44;;;;;;;;;;;23.30;66.70;;;;;;5091438;28;20024;-69
2022/09/02 09:09:16;;;;;;;8.63;3.53;;;23.40;66.80;;;;;;5091935;28;19911;-69
2022/09/02 09:12:04;;;;;;;7.50;3.40;;;23.30;66.90;;;;;;5091150;28;20051;-69
2022/09/02 09:15:10;;;;;;;7.75;3.53;;;23.30;66.80;;;;;;5076387;28;20031;-69
2022/09/02 09:17:58;;;;;;;5.70;3.75;;;23.30;66.80;;;;;;5032979;28;20132;-69
2022/09/02 09:20:25;;;;;;;8.45;3.67;;;23.30;66.90;;;;;;5036359;28;20028;-69
2022/09/02 09:22:55;;;;;;;7.18;3.45;;;23.30;66.80;;;;;;5037076;28;20033;-69
2022/09/02 09:25:28;;;;;;;9.68;3.97;;;23.30;66.90;;;;;;5037598;28;20025;-69
2022/09/02 09:28:00;;;;;;;6.25;3.40;;;23.40;66.90;;;;;;5053510;28;20115;-69
2022/09/02 09:30:26;;;;;;;7.60;4.30;;;23.30;66.90;;;;;;5036871;28;20132;-69
2022/09/02 09:32:58;;;;;;;5.07;3.10;;;23.30;66.90;;;;;;5036946;28;20111;-69
2022/09/02 09:35:25;;;;;;;5.78;3.50;;;23.30;66.90;;;;;;5037498;28;20078;-69
2022/09/02 09:37:51;;;;;;;5.45;2.95;;;23.30;66.90;;;;;;5036704;28;20032;-69
2022/09/02 09:40:25;;;;;;;4.88;3.22;;;23.30;66.90;;;;;;5033090;28;20026;-69
2022/09/02 09:42:55;;;;;;;6.20;3.33;;;23.30;66.90;;;;;;5000966;28;20026;-69
2022/09/02 09:45:35;;;;;;;4.10;3.10;;;23.30;66.90;;;;;;5016849;28;20160;-69
2022/09/02 09:48:28;;;;;;;9.07;3.15;;;23.30;66.90;;;;;;5001013;28;20065;-69
2022/09/02 09:50:56;;;;;;;6.25;3.22;;;23.30;66.90;;;;;;5026035;28;20091;-69
2022/09/02 09:53:29;;;;;;;6.93;3.33;;;23.30;67.00;;;;;;5037829;28;20064;-69
2022/09/02 09:55:57;;;;;;;7.18;3.50;;;23.30;67.00;;;;;;5057490;28;20020;-69
2022/09/02 09:58:29;;;;;;;6.07;3.55;;;23.30;67.10;;;;;;5057211;28;20021;-69
2022/09/02 10:00:57;;;;;;;7.97;3.20;;;23.30;67.00;;;;;;5073922;28;20021;-69
2022/09/02 10:03:27;;;;;;;5.70;3.03;;;23.30;67.00;;;;;;5057148;28;20028;-69
2022/09/02 10:05:54;;;;;;;6.65;3.47;;;23.30;67.10;;;;;;5057604;28;20017;-69
2022/09/02 10:08:22;;;;;;;6.78;3.40;;;23.30;67.10;;;;;;5057192;28;20480;-69
2022/09/02 10:11:02;;;;;;;6.10;3.47;;;23.30;67.10;;;;;;5073905;28;20024;-69
2022/09/02 10:13:32;;;;;;;6.80;3.30;;;23.30;67.10;;;;;;5057129;28;20028;-69
2022/09/02 10:16:07;;;;;;;7.03;3.83;;;23.30;67.10;;;;;;5073615;28;20051;-69
2022/09/02 10:18:51;;;;;;;6.90;3.30;;;23.30;67.10;;;;;;5073199;28;20029;-69
2022/09/02 10:21:36;;;;;;;8.25;3.63;;;23.30;67.20;;;;;;5074584;28;20028;-69
2022/09/02 10:24:07;;;;;;;7.95;3.53;;;23.30;67.30;;;;;;5074923;28;20024;-69
2022/09/02 10:26:37;;;;;;;6.20;3.30;;;23.30;67.20;;;;;;5074530;28;20078;-69
2022/09/02 10:29:27;;;;;;;5.40;3.28;;;23.30;67.20;;;;;;5073492;28;20570;-69
2022/09/02 10:32:11;;;;;;;5.50;3.10;;;23.30;67.30;;;;;;5074190;28;20024;-69
2022/09/02 10:34:58;;;;;;;5.78;3.60;;;23.30;67.20;;;;;;5074306;28;20035;-69
2022/09/02 10:37:25;;;;;;;5.70;3.40;;;23.30;67.30;;;;;;5074258;28;20035;-69
2022/09/02 10:40:16;;;;;;;5.43;3.03;;;23.30;67.30;;;;;;5058956;28;20020;-69
2022/09/02 10:43:06;;;;;;;5.65;3.15;;;23.30;67.30;;;;;;5093260;28;20028;-69
2022/09/02 10:45:36;;;;;;;5.70;3.20;;;23.30;67.30;;;;;;5077291;28;20020;-69
2022/09/02 10:48:26;;;;;;;4.68;3.00;;;23.30;67.40;;;;;;5092787;28;20068;-69
2022/09/02 10:50:55;;;;;;;9.05;4.05;;;23.30;67.40;;;;;;5094371;28;20391;-69
2022/09/02 10:53:30;;;;;;;6.00;3.53;;;23.20;67.40;;;;;;5093194;28;20035;-69
2022/09/02 10:55:59;;;;;;;6.45;3.67;;;23.20;67.40;;;;;;5093200;28;20032;-69
2022/09/02 10:58:34;;;;;;;4.68;3.60;;;23.20;67.40;;;;;;5093988;28;20028;-69
2022/09/02 11:01:00;;;;;;;7.25;3.75;;;23.20;67.30;;;;;;5094083;28;20024;-69
2022/09/02 11:03:35;;;;;;;9.15;3.58;;;23.20;67.30;;;;;;5075713;28;20028;-69
2022/09/02 11:06:19;;;;;;;6.90;3.83;;;23.20;67.40;;;;;;5077008;28;20015;-69
2022/09/02 11:08:52;;;;;;;7.93;4.00;;;23.20;67.30;;;;;;5077739;28;20467;-69
2022/09/02 11:11:36;;;;;;;6.22;3.80;;;23.20;67.40;;;;;;5076912;28;20041;-69
2022/09/02 11:14:05;;;;;;;8.68;4.35;;;23.20;67.30;;;;;;5077295;28;20024;-69
2022/09/02 11:16:32;;;;;;;5.78;3.60;;;23.20;67.30;;;;;;5093596;28;20024;-69
2022/09/02 11:19:00;;;;;;;4.93;3.70;;;23.20;67.30;;;;;;5092600;28;20020;-69
2022/09/02 11:21:48;;;;;;;7.30;4.00;;;23.20;67.40;;;;;;5092680;28;20046;-69
2022/09/02 11:24:19;;;;;;;5.75;4.00;;;23.20;67.30;;;;;;5092608;28;20016;-69
2022/09/02 11:27:04;;;;;;;4.68;3.92;;;23.20;67.20;;;;;;5076085;28;20023;-69
2022/09/02 11:29:50;;;;;;;5.75;4.20;;;23.20;67.20;;;;;;5093403;28;20031;-69
2022/09/02 11:32:22;;;;;;;7.50;4.25;;;23.20;67.30;;;;;;5075403;28;20509;-69
2022/09/02 11:34:49;;;;;;;4.18;3.30;;;23.20;67.20;;;;;;5076369;28;20050;-69
2022/09/02 11:37:40;;;;;;;6.63;3.67;;;23.20;67.30;;;;;;5092348;28;20073;-69
2022/09/02 11:40:08;;;;;;;8.07;3.95;;;23.20;67.30;;;;;;5093191;28;20068;-69
2022/09/02 11:43:01;;;;;;;7.93;4.32;;;23.20;67.40;;;;;;5074775;28;20095;-69
2022/09/02 11:45:32;;;;;;;6.03;3.80;;;23.20;67.40;;;;;;5088535;28;20032;-69
2022/09/02 11:48:06;;;;;;;5.97;3.60;;;23.20;67.40;;;;;;5091925;28;20046;-69
2022/09/02 11:50:58;;;;;;;5.13;3.65;;;23.20;67.40;;;;;;5091910;28;20107;-69
2022/09/02 11:53:24;;;;;;;4.75;3.63;;;23.20;67.40;;;;;;5085669;28;20059;-69
2022/09/02 11:56:17;;;;;;;4.95;3.72;;;23.20;67.50;;;;;;5093109;28;20112;-69
2022/09/02 11:58:44;;;;;;;;;;;23.20;67.40;;;;;;5076277;28;20456;-69
2022/09/02 12:01:26;;;;;;;5.95;3.60;;;23.20;67.40;;;;;;5091810;28;19911;-69
2022/09/02 12:04:19;;;;;;;4.35;3.60;;;23.20;67.40;;;;;;5091873;28;20016;-69
2022/09/02 12:07:04;;;;;;;4.47;3.72;;;23.20;67.40;;;;;;5092126;28;20020;-69
2022/09/02 12:09:49;;;;;;;6.18;3.75;;;23.20;67.40;;;;;;5092871;28;20028;-69
2022/09/02 12:12:58;;;;;;;5.88;3.50;;;23.20;67.40;;;;;;5074960;28;20020;-69
2022/09/02 12:15:23;;;;;;;5.50;3.63;;;23.20;67.40;;;;;;5050270;28;20480;-69
2022/09/02 12:17:49;;;;;;;6.72;3.67;;;23.20;67.40;;;;;;5033629;28;20037;-69
2022/09/02 12:20:37;;;;;;;5.35;3.42;;;23.20;67.50;;;;;;5050361;28;20505;-69
2022/09/02 12:23:03;;;;;;;4.57;3.30;;;23.20;67.40;;;;;;5050330;28;20034;-69
2022/09/02 12:25:31;;;;;;;5.65;3.20;;;23.20;67.50;;;;;;5033660;28;20025;-69
2022/09/02 12:28:13;;;;;;;6.05;3.33;;;23.20;67.50;;;;;;5050166;28;20104;-69
2022/09/02 12:31:00;;;;;;;4.70;3.17;;;23.20;67.50;;;;;;5033681;28;20416;-69
2022/09/02 12:33:32;;;;;;;4.03;3.17;;;23.20;67.50;;;;;;5050354;28;20032;-69
2022/09/02 12:35:58;;;;;;;5.57;3.60;;;23.20;67.70;;;;;;5033600;28;20037;-69
2022/09/02 12:38:35;;;;;;;3.65;2.70;;;23.20;67.80;;;;;;5033281;28;20112;-69
2022/09/02 12:41:03;;;;;;;6.25;3.30;;;23.20;67.70;;;;;;5030138;28;20033;-69
2022/09/02 12:43:34;;;;;;;3.75;2.95;;;23.20;67.70;;;;;;5030025;28;20108;-69
2022/09/02 12:46:27;;;;;;;4.50;3.28;;;23.20;67.70;;;;;;5030268;28;20080;-69
2022/09/02 12:49:17;;;;;;;5.13;3.47;;;23.20;67.70;;;;;;5031807;28;20106;-69
2022/09/02 12:51:57;;;;;;;4.18;3.40;;;23.20;67.70;;;;;;5072224;28;20047;-69
2022/09/02 12:54:38;;;;;;;4.60;3.38;;;23.20;68.70;;;;;;5057555;28;20034;-69
2022/09/02 12:57:04;;;;;;;5.53;3.20;;;23.20;67.70;;;;;;5076042;28;20032;-69
2022/09/02 12:59:32;;;;;;;3.70;3.30;;;23.20;67.80;;;;;;5058462;28;20020;-69
2022/09/02 13:02:43;;;;;;;6.03;3.28;;;23.20;67.80;;;;;;5075040;28;20012;-69
2022/09/02 13:05:39;;;;;;;4.65;3.13;;;23.20;67.70;;;;;;5074891;28;20020;-69